Jacksonville, Illinois
Current Conditions -  °F | °C
As of 7:55 PM on Friday 21 Nov 2014 (Local Time) from KIJX Reporting Station
Overcast Overcast  
Wind Chill: 32°   Ceiling: 2000
Heat Index: 39°   Visibility: 10mi
Dew Point: 20°   Wind: 10mph
Humidity: 48%   Direction: 130°SE
Pressure: 30.23"   Gusts: NA
Location:  39.75°N, 90.23°W
Report Text: KIJX 220155Z AUTO 13009KT 10SM OVC020 04/M06 A3023 RMK AO2 T00371064
Loading
Personal Weather Stations






























Interactive Weather Map New forecast layout! Learn more

10-Day Weather Forecast

Advertisements
Track Severe Weather on mobile